sensor_id;sensor_type;location;lat;lon;timestamp;pressure;altitude;pressure_sealevel;temperature
60615;BMP280;46444;45.590;5.284;2022-10-16T00:01:22;98724.03;;;20.69
60615;BMP280;46444;45.590;5.284;2022-10-16T00:03:49;98727.38;;;20.66
60615;BMP280;46444;45.590;5.284;2022-10-16T00:06:16;98722.44;;;20.68
60615;BMP280;46444;45.590;5.284;2022-10-16T00:08:42;98739.13;;;20.61
60615;BMP280;46444;45.590;5.284;2022-10-16T00:11:09;98733.19;;;20.59
60615;BMP280;46444;45.590;5.284;2022-10-16T00:13:36;98739.25;;;20.56
60615;BMP280;46444;45.590;5.284;2022-10-16T00:16:04;98740.56;;;20.59
60615;BMP280;46444;45.590;5.284;2022-10-16T00:18:30;98731.09;;;20.56
60615;BMP280;46444;45.590;5.284;2022-10-16T00:21:00;98743.56;;;20.57
60615;BMP280;46444;45.590;5.284;2022-10-16T00:23:26;98739.94;;;20.48
60615;BMP280;46444;45.590;5.284;2022-10-16T00:25:55;98743.75;;;20.47
60615;BMP280;46444;45.590;5.284;2022-10-16T00:28:22;98740.03;;;20.43
60615;BMP280;46444;45.590;5.284;2022-10-16T00:30:47;98743.25;;;20.45
60615;BMP280;46444;45.590;5.284;2022-10-16T00:33:12;98747.09;;;20.44
60615;BMP280;46444;45.590;5.284;2022-10-16T00:35:38;98743.66;;;20.39
60615;BMP280;46444;45.590;5.284;2022-10-16T00:38:03;98749.69;;;20.36
60615;BMP280;46444;45.590;5.284;2022-10-16T00:40:29;98751.59;;;20.35
60615;BMP280;46444;45.590;5.284;2022-10-16T00:42:54;98754.91;;;20.32
60615;BMP280;46444;45.590;5.284;2022-10-16T00:45:20;98747.66;;;20.28
60615;BMP280;46444;45.590;5.284;2022-10-16T00:47:46;98753.69;;;20.25
60615;BMP280;46444;45.590;5.284;2022-10-16T00:52:47;98752.47;;;20.17
60615;BMP280;46444;45.590;5.284;2022-10-16T00:55:13;98752.09;;;20.24
60615;BMP280;46444;45.590;5.284;2022-10-16T00:57:39;98752.38;;;20.22
60615;BMP280;46444;45.590;5.284;2022-10-16T01:00:07;98752.19;;;20.19
60615;BMP280;46444;45.590;5.284;2022-10-16T01:02:32;98756.19;;;20.21
60615;BMP280;46444;45.590;5.284;2022-10-16T01:04:58;98758.41;;;20.19
60615;BMP280;46444;45.590;5.284;2022-10-16T01:10:43;98752.56;;;20.12
60615;BMP280;46444;45.590;5.284;2022-10-16T01:13:18;98751.38;;;20.18
60615;BMP280;46444;45.590;5.284;2022-10-16T01:18:19;98747.13;;;20.12
60615;BMP280;46444;45.590;5.284;2022-10-16T01:21:01;98759.00;;;20.16
60615;BMP280;46444;45.590;5.284;2022-10-16T01:23:38;98762.31;;;20.13
60615;BMP280;46444;45.590;5.284;2022-10-16T01:28:55;98766.41;;;20.11
60615;BMP280;46444;45.590;5.284;2022-10-16T01:31:24;98767.22;;;20.11
60615;BMP280;46444;45.590;5.284;2022-10-16T01:33:57;98773.81;;;20.05
60615;BMP280;46444;45.590;5.284;2022-10-16T01:36:29;98773.28;;;20.08
60615;BMP280;46444;45.590;5.284;2022-10-16T01:39:00;98790.53;;;20.12
60615;BMP280;46444;45.590;5.284;2022-10-16T01:41:41;98780.88;;;20.06
60615;BMP280;46444;45.590;5.284;2022-10-16T01:44:14;98785.72;;;20.09
60615;BMP280;46444;45.590;5.284;2022-10-16T01:46:44;98789.06;;;20.01
60615;BMP280;46444;45.590;5.284;2022-10-16T01:49:11;98790.72;;;20.02
60615;BMP280;46444;45.590;5.284;2022-10-16T01:51:37;98787.03;;;19.93
60615;BMP280;46444;45.590;5.284;2022-10-16T01:54:04;98785.28;;;20.02
60615;BMP280;46444;45.590;5.284;2022-10-16T01:56:32;98773.41;;;19.98
60615;BMP280;46444;45.590;5.284;2022-10-16T01:59:03;98773.84;;;19.87
60615;BMP280;46444;45.590;5.284;2022-10-16T02:01:32;98769.47;;;19.91
60615;BMP280;46444;45.590;5.284;2022-10-16T02:04:02;98768.56;;;19.95
60615;BMP280;46444;45.590;5.284;2022-10-16T02:06:28;98760.63;;;19.99
60615;BMP280;46444;45.590;5.284;2022-10-16T02:08:54;98767.69;;;20.00
60615;BMP280;46444;45.590;5.284;2022-10-16T02:11:20;98768.19;;;20.02
60615;BMP280;46444;45.590;5.284;2022-10-16T02:13:48;98777.16;;;20.02
60615;BMP280;46444;45.590;5.284;2022-10-16T02:16:15;98771.19;;;20.00
60615;BMP280;46444;45.590;5.284;2022-10-16T02:18:42;98782.03;;;20.00
60615;BMP280;46444;45.590;5.284;2022-10-16T02:21:19;98776.81;;;20.04
60615;BMP280;46444;45.590;5.284;2022-10-16T02:26:39;98776.63;;;20.00
60615;BMP280;46444;45.590;5.284;2022-10-16T02:29:08;98782.84;;;20.01
60615;BMP280;46444;45.590;5.284;2022-10-16T02:31:38;98783.66;;;20.01
60615;BMP280;46444;45.590;5.284;2022-10-16T02:34:07;98783.44;;;19.98
60615;BMP280;46444;45.590;5.284;2022-10-16T02:36:35;98773.69;;;19.97
60615;BMP280;46444;45.590;5.284;2022-10-16T02:39:02;98778.41;;;19.91
60615;BMP280;46444;45.590;5.284;2022-10-16T02:41:29;98781.41;;;19.90
60615;BMP280;46444;45.590;5.284;2022-10-16T02:43:55;98778.50;;;19.86
60615;BMP280;46444;45.590;5.284;2022-10-16T02:46:20;98781.41;;;19.90
60615;BMP280;46444;45.590;5.284;2022-10-16T02:48:46;98780.03;;;19.92
60615;BMP280;46444;45.590;5.284;2022-10-16T02:51:12;98780.91;;;19.88
60615;BMP280;46444;45.590;5.284;2022-10-16T02:53:37;98773.56;;;19.88
60615;BMP280;46444;45.590;5.284;2022-10-16T02:56:03;98775.56;;;19.83
60615;BMP280;46444;45.590;5.284;2022-10-16T02:58:29;98772.94;;;19.78
60615;BMP280;46444;45.590;5.284;2022-10-16T03:00:55;98783.41;;;19.84
60615;BMP280;46444;45.590;5.284;2022-10-16T03:03:20;98776.16;;;19.80
60615;BMP280;46444;45.590;5.284;2022-10-16T03:05:46;98788.59;;;19.81
60615;BMP280;46444;45.590;5.284;2022-10-16T03:08:12;98786.41;;;19.83
60615;BMP280;46444;45.590;5.284;2022-10-16T03:10:37;98788.59;;;19.81
60615;BMP280;46444;45.590;5.284;2022-10-16T03:13:03;98791.03;;;19.82
60615;BMP280;46444;45.590;5.284;2022-10-16T03:15:28;98787.22;;;19.83
60615;BMP280;46444;45.590;5.284;2022-10-16T03:17:54;98788.91;;;19.79
60615;BMP280;46444;45.590;5.284;2022-10-16T03:20:20;98796.53;;;19.77
60615;BMP280;46444;45.590;5.284;2022-10-16T03:22:45;98790.59;;;19.75
60615;BMP280;46444;45.590;5.284;2022-10-16T03:25:10;98800.84;;;19.78
60615;BMP280;46444;45.590;5.284;2022-10-16T03:27:36;98805.56;;;19.73
60615;BMP280;46444;45.590;5.284;2022-10-16T03:30:02;98798.94;;;19.79
60615;BMP280;46444;45.590;5.284;2022-10-16T03:32:27;98806.38;;;19.73
60615;BMP280;46444;45.590;5.284;2022-10-16T03:34:53;98802.13;;;19.67
60615;BMP280;46444;45.590;5.284;2022-10-16T03:37:19;98800.19;;;19.68
60615;BMP280;46444;45.590;5.284;2022-10-16T03:39:45;98802.41;;;19.66
60615;BMP280;46444;45.590;5.284;2022-10-16T03:42:11;98807.03;;;19.65
60615;BMP280;46444;45.590;5.284;2022-10-16T03:44:37;98802.69;;;19.64
60615;BMP280;46444;45.590;5.284;2022-10-16T03:47:03;98806.00;;;19.61
60615;BMP280;46444;45.590;5.284;2022-10-16T03:49:28;98810.84;;;19.64
60615;BMP280;46444;45.590;5.284;2022-10-16T03:51:53;98808.19;;;19.59
60615;BMP280;46444;45.590;5.284;2022-10-16T03:54:19;98807.63;;;19.62
60615;BMP280;46444;45.590;5.284;2022-10-16T03:56:44;98809.22;;;19.63
60615;BMP280;46444;45.590;5.284;2022-10-16T03:59:09;98804.38;;;19.60
60615;BMP280;46444;45.590;5.284;2022-10-16T04:01:35;98812.00;;;19.58
60615;BMP280;46444;45.590;5.284;2022-10-16T04:04:00;98801.44;;;19.57
60615;BMP280;46444;45.590;5.284;2022-10-16T04:06:26;98800.66;;;19.56
60615;BMP280;46444;45.590;5.284;2022-10-16T04:08:51;98805.41;;;19.64
60615;BMP280;46444;45.590;5.284;2022-10-16T04:11:17;98809.22;;;19.63
60615;BMP280;46444;45.590;5.284;2022-10-16T04:13:42;98801.97;;;19.59
60615;BMP280;46444;45.590;5.284;2022-10-16T04:16:08;98801.97;;;19.59
60615;BMP280;46444;45.590;5.284;2022-10-16T04:18:34;98797.97;;;19.56
60615;BMP280;46444;45.590;5.284;2022-10-16T04:21:04;98802.56;;;19.56
60615;BMP280;46444;45.590;5.284;2022-10-16T04:23:30;98798.53;;;19.53
60615;BMP280;46444;45.590;5.284;2022-10-16T04:25:55;98796.91;;;19.52
60615;BMP280;46444;45.590;5.284;2022-10-16T04:28:21;98805.34;;;19.51
60615;BMP280;46444;45.590;5.284;2022-10-16T04:30:46;98809.81;;;19.42
60615;BMP280;46444;45.590;5.284;2022-10-16T04:33:11;98810.75;;;19.51
60615;BMP280;46444;45.590;5.284;2022-10-16T04:35:37;98822.78;;;19.45
60615;BMP280;46444;45.590;5.284;2022-10-16T04:38:03;98815.19;;;19.47
60615;BMP280;46444;45.590;5.284;2022-10-16T04:40:29;98824.41;;;19.46
60615;BMP280;46444;45.590;5.284;2022-10-16T04:42:54;98821.22;;;19.39
60615;BMP280;46444;45.590;5.284;2022-10-16T04:45:19;98823.59;;;19.45
60615;BMP280;46444;45.590;5.284;2022-10-16T04:47:45;98827.97;;;19.41
60615;BMP280;46444;45.590;5.284;2022-10-16T04:50:10;98829.91;;;19.41
60615;BMP280;46444;45.590;5.284;2022-10-16T04:52:36;98825.59;;;19.40
60615;BMP280;46444;45.590;5.284;2022-10-16T04:55:01;98816.13;;;19.38
60615;BMP280;46444;45.590;5.284;2022-10-16T04:57:29;98820.94;;;19.40
60615;BMP280;46444;45.590;5.284;2022-10-16T04:59:54;98818.53;;;19.39
60615;BMP280;46444;45.590;5.284;2022-10-16T05:02:20;98819.84;;;19.41
60615;BMP280;46444;45.590;5.284;2022-10-16T05:04:45;98815.53;;;19.40
60615;BMP280;46444;45.590;5.284;2022-10-16T05:07:11;98819.78;;;19.46
60615;BMP280;46444;45.590;5.284;2022-10-16T05:09:36;98813.31;;;19.42
60615;BMP280;46444;45.590;5.284;2022-10-16T05:12:02;98814.16;;;19.43
60615;BMP280;46444;45.590;5.284;2022-10-16T05:14:28;98818.19;;;19.45
60615;BMP280;46444;45.590;5.284;2022-10-16T05:16:54;98818.75;;;19.42
60615;BMP280;46444;45.590;5.284;2022-10-16T05:19:19;98817.13;;;19.41
60615;BMP280;46444;45.590;5.284;2022-10-16T05:21:44;98819.34;;;19.39
60615;BMP280;46444;45.590;5.284;2022-10-16T05:24:10;98815.53;;;19.40
60615;BMP280;46444;45.590;5.284;2022-10-16T05:26:35;98825.94;;;19.33
60615;BMP280;46444;45.590;5.284;2022-10-16T05:29:00;98830.75;;;19.36
60615;BMP280;46444;45.590;5.284;2022-10-16T05:31:26;98830.31;;;19.29
60615;BMP280;46444;45.590;5.284;2022-10-16T05:33:51;98829.31;;;19.26
60615;BMP280;46444;45.590;5.284;2022-10-16T05:36:17;98826.09;;;19.18
60615;BMP280;46444;45.590;5.284;2022-10-16T05:38:43;98839.94;;;19.17
60615;BMP280;46444;45.590;5.284;2022-10-16T05:41:09;98827.19;;;19.17
60615;BMP280;46444;45.590;5.284;2022-10-16T05:43:34;98835.09;;;19.14
60615;BMP280;46444;45.590;5.284;2022-10-16T05:46:05;98824.19;;;19.19
60615;BMP280;46444;45.590;5.284;2022-10-16T05:48:31;98837.59;;;19.10
60615;BMP280;46444;45.590;5.284;2022-10-16T05:51:04;98838.63;;;19.14
60615;BMP280;46444;45.590;5.284;2022-10-16T05:53:31;98842.44;;;19.13
60615;BMP280;46444;45.590;5.284;2022-10-16T05:55:58;98854.44;;;19.08
60615;BMP280;46444;45.590;5.284;2022-10-16T05:58:24;98847.97;;;19.03
60615;BMP280;46444;45.590;5.284;2022-10-16T06:00:54;98852.22;;;19.09
60615;BMP280;46444;45.590;5.284;2022-10-16T06:03:21;98852.56;;;19.03
60615;BMP280;46444;45.590;5.284;2022-10-16T06:05:46;98857.25;;;18.98
60615;BMP280;46444;45.590;5.284;2022-10-16T06:08:12;98864.50;;;19.02
60615;BMP280;46444;45.590;5.284;2022-10-16T06:10:37;98857.25;;;18.98
60615;BMP280;46444;45.590;5.284;2022-10-16T06:13:02;98866.97;;;18.98
60615;BMP280;46444;45.590;5.284;2022-10-16T06:15:28;98880.47;;;19.03
60615;BMP280;46444;45.590;5.284;2022-10-16T06:17:53;98877.25;;;19.02
60615;BMP280;46444;45.590;5.284;2022-10-16T06:20:19;98873.28;;;18.94
60615;BMP280;46444;45.590;5.284;2022-10-16T06:22:44;98869.47;;;18.95
60615;BMP280;46444;45.590;5.284;2022-10-16T06:25:09;98872.63;;;19.02
60615;BMP280;46444;45.590;5.284;2022-10-16T06:27:40;98872.84;;;19.05
60615;BMP280;46444;45.590;5.284;2022-10-16T06:30:07;98865.09;;;18.99
60615;BMP280;46444;45.590;5.284;2022-10-16T06:32:32;98851.56;;;18.99
60615;BMP280;46444;45.590;5.284;2022-10-16T06:34:58;98874.47;;;19.06
60615;BMP280;46444;45.590;5.284;2022-10-16T06:37:23;98870.97;;;19.06
60615;BMP280;46444;45.590;5.284;2022-10-16T06:39:50;98864.66;;;19.10
60615;BMP280;46444;45.590;5.284;2022-10-16T06:42:17;98863.56;;;19.11
60615;BMP280;46444;45.590;5.284;2022-10-16T06:44:43;98865.13;;;19.17
60615;BMP280;46444;45.590;5.284;2022-10-16T06:47:08;98856.72;;;19.19
60615;BMP280;46444;45.590;5.284;2022-10-16T06:49:34;98870.00;;;19.21
60615;BMP280;46444;45.590;5.284;2022-10-16T06:52:00;98889.47;;;19.23
60615;BMP280;46444;45.590;5.284;2022-10-16T06:54:28;98892.19;;;19.23
60615;BMP280;46444;45.590;5.284;2022-10-16T06:56:53;98901.91;;;19.23
60615;BMP280;46444;45.590;5.284;2022-10-16T06:59:20;98904.94;;;19.22
60615;BMP280;46444;45.590;5.284;2022-10-16T07:01:46;98901.34;;;19.27
60615;BMP280;46444;45.590;5.284;2022-10-16T07:04:11;98916.56;;;19.23
60615;BMP280;46444;45.590;5.284;2022-10-16T07:06:36;98919.22;;;19.27
60615;BMP280;46444;45.590;5.284;2022-10-16T07:09:05;98922.97;;;19.32
60615;BMP280;46444;45.590;5.284;2022-10-16T07:11:30;98921.81;;;19.38
60615;BMP280;46444;45.590;5.284;2022-10-16T07:13:56;98939.16;;;19.36
60615;BMP280;46444;45.590;5.284;2022-10-16T07:16:27;98949.38;;;19.44
60615;BMP280;46444;45.590;5.284;2022-10-16T07:18:54;98958.50;;;19.48
60615;BMP280;46444;45.590;5.284;2022-10-16T07:21:24;98959.06;;;19.50
60615;BMP280;46444;45.590;5.284;2022-10-16T07:23:55;98959.56;;;19.52
60615;BMP280;46444;45.590;5.284;2022-10-16T07:26:21;98968.19;;;19.54
60615;BMP280;46444;45.590;5.284;2022-10-16T07:28:47;98960.59;;;19.56
60615;BMP280;46444;45.590;5.284;2022-10-16T07:31:14;98969.25;;;19.58
60615;BMP280;46444;45.590;5.284;2022-10-16T07:33:41;98965.44;;;19.59
60615;BMP280;46444;45.590;5.284;2022-10-16T07:36:09;98970.22;;;19.67
60615;BMP280;46444;45.590;5.284;2022-10-16T07:38:44;98967.75;;;19.71
60615;BMP280;46444;45.590;5.284;2022-10-16T07:41:12;98973.59;;;19.78
60615;BMP280;46444;45.590;5.284;2022-10-16T07:43:38;98976.03;;;19.79
60615;BMP280;46444;45.590;5.284;2022-10-16T07:46:03;98981.91;;;19.86
60615;BMP280;46444;45.590;5.284;2022-10-16T07:48:31;98977.25;;;19.87
60615;BMP280;46444;45.590;5.284;2022-10-16T07:51:01;98985.66;;;19.90
60615;BMP280;46444;45.590;5.284;2022-10-16T07:53:27;98986.66;;;19.94
60615;BMP280;46444;45.590;5.284;2022-10-16T07:55:57;98983.38;;;19.97
60615;BMP280;46444;45.590;5.284;2022-10-16T07:58:23;98982.00;;;20.00
60615;BMP280;46444;45.590;5.284;2022-10-16T08:00:49;98984.91;;;20.03
60615;BMP280;46444;45.590;5.284;2022-10-16T08:03:14;98991.31;;;20.12
60615;BMP280;46444;45.590;5.284;2022-10-16T08:05:39;98989.13;;;20.14
60615;BMP280;46444;45.590;5.284;2022-10-16T08:08:05;98986.31;;;20.19
60615;BMP280;46444;45.590;5.284;2022-10-16T08:10:30;98991.41;;;20.26
60615;BMP280;46444;45.590;5.284;2022-10-16T08:12:57;98984.06;;;20.26
60615;BMP280;46444;45.590;5.284;2022-10-16T08:15:22;98986.13;;;20.34
60615;BMP280;46444;45.590;5.284;2022-10-16T08:17:55;98992.34;;;20.35
60615;BMP280;46444;45.590;5.284;2022-10-16T08:20:21;98974.38;;;20.39
60615;BMP280;46444;45.590;5.284;2022-10-16T08:22:47;98982.00;;;20.37
60615;BMP280;46444;45.590;5.284;2022-10-16T08:25:12;98979.50;;;20.40
60615;BMP280;46444;45.590;5.284;2022-10-16T08:27:37;98981.84;;;20.47
60615;BMP280;46444;45.590;5.284;2022-10-16T08:30:03;98981.84;;;20.47
60615;BMP280;46444;45.590;5.284;2022-10-16T08:32:28;98977.44;;;20.51
60615;BMP280;46444;45.590;5.284;2022-10-16T08:34:54;98979.25;;;20.55
60615;BMP280;46444;45.590;5.284;2022-10-16T08:37:20;98986.81;;;20.58
60615;BMP280;46444;45.590;5.284;2022-10-16T08:39:45;98990.56;;;20.62
60615;BMP280;46444;45.590;5.284;2022-10-16T08:49:57;98994.13;;;20.76
60615;BMP280;46444;45.590;5.284;2022-10-16T08:52:25;98994.03;;;20.81
60615;BMP280;46444;45.590;5.284;2022-10-16T08:54:55;99000.56;;;20.80
60615;BMP280;46444;45.590;5.284;2022-10-16T08:57:22;99005.91;;;20.85
60615;BMP280;46444;45.590;5.284;2022-10-16T08:59:47;99005.34;;;20.88
60615;BMP280;46444;45.590;5.284;2022-10-16T09:02:24;99005.28;;;20.93
60615;BMP280;46444;45.590;5.284;2022-10-16T09:10:33;98990.97;;;21.01
60615;BMP280;46444;45.590;5.284;2022-10-16T09:13:39;99000.94;;;21.06
60615;BMP280;46444;45.590;5.284;2022-10-16T09:16:12;99005.50;;;21.10
60615;BMP280;46444;45.590;5.284;2022-10-16T09:18:54;98997.34;;;21.10
60615;BMP280;46444;45.590;5.284;2022-10-16T09:21:35;98997.28;;;21.15
60615;BMP280;46444;45.590;5.284;2022-10-16T09:24:27;98996.38;;;21.20
60615;BMP280;46444;45.590;5.284;2022-10-16T09:26:52;98999.28;;;21.23
60615;BMP280;46444;45.590;5.284;2022-10-16T09:29:19;99004.09;;;21.26
60615;BMP280;46444;45.590;5.284;2022-10-16T09:31:50;99001.59;;;21.30
60615;BMP280;46444;45.590;5.284;2022-10-16T09:34:35;99012.69;;;21.33
60615;BMP280;46444;45.590;5.284;2022-10-16T09:37:12;99015.28;;;21.38
60615;BMP280;46444;45.590;5.284;2022-10-16T09:39:51;99017.91;;;21.43
60615;BMP280;46444;45.590;5.284;2022-10-16T09:42:31;99018.94;;;21.47
60615;BMP280;46444;45.590;5.284;2022-10-16T09:44:57;99021.84;;;21.51
60615;BMP280;46444;45.590;5.284;2022-10-16T09:47:28;99019.81;;;21.56
60615;BMP280;46444;45.590;5.284;2022-10-16T09:50:05;99011.00;;;21.64
60615;BMP280;46444;45.590;5.284;2022-10-16T09:52:44;99027.81;;;21.66
60615;BMP280;46444;45.590;5.284;2022-10-16T09:55:15;99014.13;;;21.71
60615;BMP280;46444;45.590;5.284;2022-10-16T09:57:51;99023.59;;;21.74
60615;BMP280;46444;45.590;5.284;2022-10-16T10:00:17;99019.19;;;21.78
60615;BMP280;46444;45.590;5.284;2022-10-16T10:02:43;99003.66;;;21.78
60615;BMP280;46444;45.590;5.284;2022-10-16T10:05:22;99014.72;;;21.95
60615;BMP280;46444;45.590;5.284;2022-10-16T10:07:55;99013.09;;;21.94
60615;BMP280;46444;45.590;5.284;2022-10-16T10:10:24;99016.63;;;21.95
60615;BMP280;46444;45.590;5.284;2022-10-16T10:12:50;99017.81;;;22.02
60615;BMP280;46444;45.590;5.284;2022-10-16T10:15:16;99015.28;;;22.06
60615;BMP280;46444;45.590;5.284;2022-10-16T10:17:51;99026.38;;;22.09
60615;BMP280;46444;45.590;5.284;2022-10-16T10:20:34;99013.59;;;22.10
60615;BMP280;46444;45.590;5.284;2022-10-16T10:23:01;99020.22;;;22.17
60615;BMP280;46444;45.590;5.284;2022-10-16T10:26:04;99019.69;;;22.15
60615;BMP280;46444;45.590;5.284;2022-10-16T10:31:35;99017.78;;;22.29
60615;BMP280;46444;45.590;5.284;2022-10-16T10:37:04;99002.59;;;22.37
60615;BMP280;46444;45.590;5.284;2022-10-16T10:39:45;99020.47;;;22.43
60615;BMP280;46444;45.590;5.284;2022-10-16T10:45:11;99003.09;;;22.52
60615;BMP280;46444;45.590;5.284;2022-10-16T10:55:40;98998.41;;;22.66
60615;BMP280;46444;45.590;5.284;2022-10-16T11:01:01;99003.09;;;22.74
60615;BMP280;46444;45.590;5.284;2022-10-16T11:04:00;99000.25;;;22.79
60615;BMP280;46444;45.590;5.284;2022-10-16T11:06:32;99005.88;;;22.83
60615;BMP280;46444;45.590;5.284;2022-10-16T11:11:51;98985.72;;;22.92
60615;BMP280;46444;45.590;5.284;2022-10-16T11:14:35;98978.84;;;22.95
60615;BMP280;46444;45.590;5.284;2022-10-16T11:17:26;98985.00;;;23.00
60615;BMP280;46444;45.590;5.284;2022-10-16T11:20:14;98972.34;;;23.04
60615;BMP280;46444;45.590;5.284;2022-10-16T11:22:54;98976.03;;;23.08
60615;BMP280;46444;45.590;5.284;2022-10-16T11:25:29;98970.47;;;23.13
60615;BMP280;46444;45.590;5.284;2022-10-16T11:28:15;98968.13;;;23.20
60615;BMP280;46444;45.590;5.284;2022-10-16T11:30:46;98969.41;;;23.23
60615;BMP280;46444;45.590;5.284;2022-10-16T11:38:44;98968.69;;;23.39
60615;BMP280;46444;45.590;5.284;2022-10-16T11:41:17;98963.09;;;23.44
60615;BMP280;46444;45.590;5.284;2022-10-16T11:46:58;98962.13;;;23.49
60615;BMP280;46444;45.590;5.284;2022-10-16T11:49:33;98972.72;;;23.50
60615;BMP280;46444;45.590;5.284;2022-10-16T11:52:15;98964.88;;;23.57
60615;BMP280;46444;45.590;5.284;2022-10-16T11:54:47;98975.81;;;23.66
60615;BMP280;46444;45.590;5.284;2022-10-16T11:57:32;98951.75;;;23.76
60615;BMP280;46444;45.590;5.284;2022-10-16T12:00:04;98962.22;;;23.83
60615;BMP280;46444;45.590;5.284;2022-10-16T12:05:22;98970.66;;;24.46
60615;BMP280;46444;45.590;5.284;2022-10-16T12:08:08;98964.03;;;25.44
60615;BMP280;46444;45.590;5.284;2022-10-16T12:10:34;98962.44;;;26.21
60615;BMP280;46444;45.590;5.284;2022-10-16T12:13:04;98959.50;;;27.12
60615;BMP280;46444;45.590;5.284;2022-10-16T12:15:32;98943.44;;;27.94
60615;BMP280;46444;45.590;5.284;2022-10-16T12:17:58;98942.81;;;28.13
60615;BMP280;46444;45.590;5.284;2022-10-16T12:20:30;98946.97;;;27.95
60615;BMP280;46444;45.590;5.284;2022-10-16T12:23:02;98941.47;;;29.17
60615;BMP280;46444;45.590;5.284;2022-10-16T12:25:29;98930.25;;;30.60
60615;BMP280;46444;45.590;5.284;2022-10-16T12:28:00;98929.84;;;31.44
60615;BMP280;46444;45.590;5.284;2022-10-16T12:30:28;98930.25;;;31.95
60615;BMP280;46444;45.590;5.284;2022-10-16T12:32:56;98937.31;;;32.48
60615;BMP280;46444;45.590;5.284;2022-10-16T12:35:29;98938.53;;;32.50
60615;BMP280;46444;45.590;5.284;2022-10-16T12:38:05;98929.72;;;33.07
60615;BMP280;46444;45.590;5.284;2022-10-16T12:40:33;98922.84;;;32.28
60615;BMP280;46444;45.590;5.284;2022-10-16T12:45:45;98917.59;;;33.69
60615;BMP280;46444;45.590;5.284;2022-10-16T12:48:22;98916.78;;;34.26
60615;BMP280;46444;45.590;5.284;2022-10-16T12:50:47;98911.38;;;34.65
60615;BMP280;46444;45.590;5.284;2022-10-16T12:53:21;98914.41;;;34.28
60615;BMP280;46444;45.590;5.284;2022-10-16T12:59:04;98909.13;;;35.54
60615;BMP280;46444;45.590;5.284;2022-10-16T13:07:25;98903.66;;;36.75
60615;BMP280;46444;45.590;5.284;2022-10-16T13:13:12;98910.13;;;36.44
60615;BMP280;46444;45.590;5.284;2022-10-16T13:18:24;98910.50;;;37.25
60615;BMP280;46444;45.590;5.284;2022-10-16T13:21:02;98902.69;;;37.02
60615;BMP280;46444;45.590;5.284;2022-10-16T13:23:51;98903.59;;;37.40
60615;BMP280;46444;45.590;5.284;2022-10-16T13:26:44;98899.31;;;37.76
60615;BMP280;46444;45.590;5.284;2022-10-16T13:29:12;98893.88;;;38.36
60615;BMP280;46444;45.590;5.284;2022-10-16T13:31:38;98901.72;;;38.11
60615;BMP280;46444;45.590;5.284;2022-10-16T13:34:05;98894.69;;;37.08
60615;BMP280;46444;45.590;5.284;2022-10-16T13:36:42;98895.47;;;37.59
60615;BMP280;46444;45.590;5.284;2022-10-16T13:39:13;98898.22;;;36.47
60615;BMP280;46444;45.590;5.284;2022-10-16T13:41:40;98901.75;;;36.58
60615;BMP280;46444;45.590;5.284;2022-10-16T13:44:13;98894.41;;;37.43
60615;BMP280;46444;45.590;5.284;2022-10-16T13:46:39;98893.38;;;36.65
60615;BMP280;46444;45.590;5.284;2022-10-16T13:49:16;98888.25;;;37.18
60615;BMP280;46444;45.590;5.284;2022-10-16T13:51:57;98905.56;;;37.43
60615;BMP280;46444;45.590;5.284;2022-10-16T13:54:23;98908.53;;;37.69
60615;BMP280;46444;45.590;5.284;2022-10-16T13:56:49;98914.78;;;37.84
60615;BMP280;46444;45.590;5.284;2022-10-16T13:59:33;98909.16;;;37.40
60615;BMP280;46444;45.590;5.284;2022-10-16T14:02:00;98908.44;;;37.32
60615;BMP280;46444;45.590;5.284;2022-10-16T14:04:32;98904.75;;;37.90
60615;BMP280;46444;45.590;5.284;2022-10-16T14:06:57;98909.84;;;36.28
60615;BMP280;46444;45.590;5.284;2022-10-16T14:09:28;98904.78;;;35.74
60615;BMP280;46444;45.590;5.284;2022-10-16T14:11:56;68090.63;;;-139.05
60615;BMP280;46444;45.590;5.284;2022-10-16T14:14:23;98908.13;;;34.38
60615;BMP280;46444;45.590;5.284;2022-10-16T14:16:48;98917.31;;;34.63
60615;BMP280;46444;45.590;5.284;2022-10-16T14:19:28;68090.63;;;-139.05
60615;BMP280;46444;45.590;5.284;2022-10-16T14:21:54;68090.63;;;-139.05
60615;BMP280;46444;45.590;5.284;2022-10-16T14:24:31;68090.63;;;-139.05
60615;BMP280;46444;45.590;5.284;2022-10-16T14:26:58;68090.63;;;-139.05
60615;BMP280;46444;45.590;5.284;2022-10-16T14:29:25;98917.56;;;31.90
60615;BMP280;46444;45.590;5.284;2022-10-16T14:34:37;68090.63;;;-139.05
60615;BMP280;46444;45.590;5.284;2022-10-16T14:39:51;68090.63;;;-139.05
60615;BMP280;46444;45.590;5.284;2022-10-16T14:42:19;68090.63;;;-139.05
60615;BMP280;46444;45.590;5.284;2022-10-16T14:44:45;68090.63;;;-139.05
60615;BMP280;46444;45.590;5.284;2022-10-16T14:47:17;68090.63;;;-139.05
60615;BMP280;46444;45.590;5.284;2022-10-16T14:49:47;68090.63;;;-139.05
60615;BMP280;46444;45.590;5.284;2022-10-16T14:52:13;68090.63;;;-139.05
60615;BMP280;46444;45.590;5.284;2022-10-16T14:54:50;68090.63;;;-139.05
60615;BMP280;46444;45.590;5.284;2022-10-16T14:57:23;68090.63;;;-139.05
60615;BMP280;46444;45.590;5.284;2022-10-16T14:59:50;68090.63;;;-139.05
60615;BMP280;46444;45.590;5.284;2022-10-16T15:02:25;68090.63;;;-139.05
60615;BMP280;46444;45.590;5.284;2022-10-16T15:04:51;98917.56;;;31.90
60615;BMP280;46444;45.590;5.284;2022-10-16T15:07:17;98935.81;;;28.82
60615;BMP280;46444;45.590;5.284;2022-10-16T15:09:42;98939.28;;;28.79
60615;BMP280;46444;45.590;5.284;2022-10-16T15:12:08;98939.34;;;28.67
60615;BMP280;46444;45.590;5.284;2022-10-16T15:14:33;98932.63;;;28.53
60615;BMP280;46444;45.590;5.284;2022-10-16T15:16:58;98936.84;;;28.62
60615;BMP280;46444;45.590;5.284;2022-10-16T15:19:24;98932.28;;;28.54
60615;BMP280;46444;45.590;5.284;2022-10-16T15:21:49;98937.94;;;28.46
60615;BMP280;46444;45.590;5.284;2022-10-16T15:24:15;98941.75;;;28.17
60615;BMP280;46444;45.590;5.284;2022-10-16T15:26:40;98937.84;;;28.30
60615;BMP280;46444;45.590;5.284;2022-10-16T15:29:06;98951.59;;;28.42
60615;BMP280;46444;45.590;5.284;2022-10-16T15:31:32;98943.84;;;28.20
60615;BMP280;46444;45.590;5.284;2022-10-16T15:33:57;68090.63;;;-139.05
60615;BMP280;46444;45.590;5.284;2022-10-16T15:36:34;68090.63;;;-139.05
60615;BMP280;46444;45.590;5.284;2022-10-16T15:39:02;68090.63;;;-139.05
60615;BMP280;46444;45.590;5.284;2022-10-16T15:41:28;98927.88;;;27.62